createdAt,value
2022-12-22T00:01:00.259Z,8.06
2022-12-22T00:06:22.403Z,8.07
2022-12-22T00:11:43.009Z,8.12
2022-12-22T00:17:03.561Z,8.12
2022-12-22T00:22:31.825Z,8.15
2022-12-22T00:27:51.872Z,8.16
2022-12-22T00:33:12.617Z,8.19
2022-12-22T00:38:35.656Z,8.24
2022-12-22T00:43:55.846Z,8.30
2022-12-22T00:49:16.376Z,8.33
2022-12-22T00:54:39.126Z,8.38
2022-12-22T00:59:59.666Z,8.42
2022-12-22T01:05:19.998Z,8.45
2022-12-22T01:10:42.068Z,8.48
2022-12-22T01:16:02.556Z,8.47
2022-12-22T01:21:23.186Z,8.49
2022-12-22T01:26:45.009Z,8.47
2022-12-22T01:32:05.194Z,8.48
2022-12-22T01:37:25.684Z,8.50
2022-12-22T01:42:50.176Z,8.52
2022-12-22T01:48:10.615Z,8.51
2022-12-22T01:53:34.788Z,8.55
2022-12-22T01:59:00.001Z,8.60
2022-12-22T02:04:20.933Z,8.59
2022-12-22T02:09:49.701Z,8.64
2022-12-22T02:15:18.395Z,8.66
2022-12-22T02:20:57.193Z,8.67
2022-12-22T02:26:20.793Z,8.69
2022-12-22T02:31:43.470Z,8.71
2022-12-22T02:37:09.405Z,8.74
2022-12-22T02:42:35.371Z,8.76
2022-12-22T02:48:03.599Z,8.77
2022-12-22T02:53:24.289Z,8.76
2022-12-22T02:58:44.468Z,8.78
2022-12-22T03:04:06.580Z,8.75
2022-12-22T03:09:27.051Z,8.76
2022-12-22T03:14:47.186Z,8.75
2022-12-22T03:20:08.598Z,8.76
2022-12-22T03:25:28.623Z,8.77
2022-12-22T03:30:31.376Z,8.80
2022-12-22T03:35:35.563Z,8.83
2022-12-22T03:40:38.266Z,8.84
2022-12-22T03:45:58.856Z,8.85
2022-12-22T03:51:02.998Z,8.86
2022-12-22T03:56:08.078Z,8.86
2022-12-22T04:01:11.156Z,8.84
2022-12-22T04:06:15.281Z,8.81
2022-12-22T04:11:36.751Z,8.79
2022-12-22T04:16:39.595Z,8.78
2022-12-22T04:21:43.952Z,8.77
2022-12-22T04:26:46.867Z,8.73
2022-12-22T04:31:49.802Z,8.72
2022-12-22T04:36:53.896Z,8.73
2022-12-22T04:41:56.753Z,8.75
2022-12-22T04:46:59.469Z,8.77
2022-12-22T04:52:03.588Z,8.79
2022-12-22T04:57:06.358Z,8.79
2022-12-22T05:02:09.160Z,8.80
2022-12-22T05:07:13.356Z,8.78
2022-12-22T05:12:33.509Z,8.77
2022-12-22T05:17:36.330Z,8.75
2022-12-22T05:22:40.436Z,8.72
2022-12-22T05:27:43.226Z,8.72
2022-12-22T05:32:46.063Z,8.73
2022-12-22T05:37:50.188Z,8.71
2022-12-22T05:42:53.013Z,8.72
2022-12-22T05:47:55.696Z,8.71
2022-12-22T05:52:59.909Z,8.71
2022-12-22T05:58:03.093Z,8.71
2022-12-22T06:03:06.149Z,8.75
2022-12-22T06:08:10.295Z,8.76
2022-12-22T06:13:13.054Z,8.77
2022-12-22T06:18:15.793Z,8.74
2022-12-22T06:23:20.046Z,8.76
2022-12-22T06:28:22.877Z,8.75
2022-12-22T06:33:25.662Z,8.76
2022-12-22T06:38:29.796Z,8.79
2022-12-22T06:43:32.481Z,8.79
2022-12-22T06:48:35.250Z,8.82
2022-12-22T06:53:39.411Z,8.82
2022-12-22T06:58:42.127Z,8.85
2022-12-22T07:03:44.996Z,8.89
2022-12-22T07:08:49.565Z,8.92
2022-12-22T07:13:52.953Z,8.96
2022-12-22T07:18:56.098Z,8.98
2022-12-22T07:24:00.202Z,9.00
2022-12-22T07:29:03.017Z,9.02
2022-12-22T07:34:05.743Z,9.04
2022-12-22T07:39:09.966Z,9.04
2022-12-22T07:44:12.678Z,9.07
2022-12-22T07:49:32.733Z,9.07
2022-12-22T07:54:41.626Z,9.03
2022-12-22T07:59:45.345Z,9.00
2022-12-22T08:04:48.114Z,9.03
2022-12-22T08:09:52.341Z,9.03
2022-12-22T08:14:55.305Z,9.03
2022-12-22T08:19:58.697Z,9.06
2022-12-22T08:25:02.788Z,9.06
2022-12-22T08:30:07.319Z,9.06
2022-12-22T08:35:11.121Z,9.08
2022-12-22T08:40:18.890Z,9.09
2022-12-22T08:45:22.827Z,9.12
2022-12-22T08:50:25.647Z,8.96
2022-12-22T08:55:29.810Z,8.84
2022-12-22T09:00:32.668Z,8.77
2022-12-22T09:05:38.458Z,8.77
2022-12-22T09:10:44.666Z,8.78
2022-12-22T09:15:47.500Z,8.79
2022-12-22T09:20:55.878Z,8.86
2022-12-22T09:25:59.975Z,8.93
2022-12-22T09:31:02.772Z,9.04
2022-12-22T09:36:07.285Z,9.15
2022-12-22T09:41:17.772Z,9.23
2022-12-22T09:46:23.187Z,9.29
2022-12-22T09:51:27.607Z,9.33
2022-12-22T09:56:31.940Z,9.38
2022-12-22T10:01:43.988Z,9.42
2022-12-22T10:06:52.422Z,9.41
2022-12-22T10:11:58.709Z,9.49
2022-12-22T10:17:19.402Z,9.61
2022-12-22T10:22:27.468Z,9.75
2022-12-22T10:27:34.243Z,9.85
2022-12-22T10:32:37.990Z,9.94
2022-12-22T10:37:41.949Z,9.99
2022-12-22T10:42:49.512Z,10.10
2022-12-22T10:47:54.616Z,10.11
2022-12-22T10:52:58.971Z,9.94
2022-12-22T10:58:17.274Z,9.88
2022-12-22T11:03:30.851Z,9.96
2022-12-22T11:08:34.053Z,10.04
2022-12-22T11:13:48.841Z,10.06
2022-12-22T11:19:03.316Z,10.16
2022-12-22T11:24:19.037Z,10.22
2022-12-22T11:29:36.783Z,10.34
2022-12-22T11:34:50.653Z,10.53
2022-12-22T11:39:59.253Z,10.56
2022-12-22T11:45:11.300Z,10.60
2022-12-22T11:51:01.384Z,10.58
2022-12-22T11:56:07.780Z,10.58
2022-12-22T12:01:34.431Z,10.60
2022-12-22T12:06:52.487Z,10.60
2022-12-22T12:11:59.357Z,10.60
2022-12-22T12:17:12.257Z,10.57
2022-12-22T12:22:21.953Z,10.58
2022-12-22T12:27:37.995Z,10.59
2022-12-22T12:32:45.395Z,10.55
2022-12-22T12:37:52.098Z,10.53
2022-12-22T12:42:55.489Z,10.57
2022-12-22T12:48:41.501Z,10.56
2022-12-22T12:54:34.874Z,10.57
2022-12-22T12:59:47.315Z,10.55
2022-12-22T13:05:28.454Z,10.59
2022-12-22T13:10:33.596Z,10.51
2022-12-22T13:15:41.321Z,10.44
2022-12-22T13:20:46.087Z,10.44
2022-12-22T13:25:51.401Z,10.41
2022-12-22T13:30:59.456Z,10.31
2022-12-22T13:36:04.567Z,9.99
2022-12-22T13:41:21.400Z,9.84
2022-12-22T13:46:28.092Z,9.79
2022-12-22T13:51:36.747Z,9.75
2022-12-22T13:56:41.625Z,9.68
2022-12-22T14:01:50.468Z,9.65
2022-12-22T14:06:55.887Z,9.62
2022-12-22T14:12:05.191Z,9.55
2022-12-22T14:17:20.076Z,9.50
2022-12-22T14:22:27.380Z,9.47
2022-12-22T14:27:34.322Z,9.46
2022-12-22T14:32:40.316Z,9.43
2022-12-22T14:37:44.674Z,9.40
2022-12-22T14:42:47.585Z,9.40
2022-12-22T14:47:50.694Z,9.36
2022-12-22T14:52:56.574Z,9.34
2022-12-22T14:58:02.233Z,9.33
2022-12-22T15:03:07.618Z,9.29
2022-12-22T15:08:38.985Z,9.29
2022-12-22T15:13:41.922Z,9.28
2022-12-22T15:18:45.037Z,9.27
2022-12-22T15:23:49.249Z,9.24
2022-12-22T15:28:52.009Z,9.22
2022-12-22T15:33:56.929Z,9.15
2022-12-22T15:39:01.195Z,9.09
2022-12-22T15:44:04.004Z,9.05
2022-12-22T15:49:09.456Z,8.98
2022-12-22T15:54:15.109Z,8.92
2022-12-22T15:59:20.490Z,8.91
2022-12-22T16:04:23.807Z,8.84
2022-12-22T16:09:32.433Z,8.85
2022-12-22T16:14:40.611Z,8.85
2022-12-22T16:19:46.442Z,8.87
2022-12-22T16:24:51.391Z,8.83
2022-12-22T16:29:55.052Z,8.82
2022-12-22T16:35:08.176Z,8.84
2022-12-22T16:40:13.606Z,8.75
2022-12-22T16:45:19.354Z,8.77
2022-12-22T16:50:24.081Z,8.79
2022-12-22T16:55:28.919Z,8.83
2022-12-22T17:00:33.275Z,8.87
2022-12-22T17:05:43.978Z,8.83
2022-12-22T17:10:49.387Z,8.96
2022-12-22T17:15:52.216Z,9.06
2022-12-22T17:20:56.900Z,9.03
2022-12-22T17:26:03.497Z,8.91
2022-12-22T17:31:06.801Z,8.81
2022-12-22T17:36:18.768Z,8.74
2022-12-22T17:41:23.087Z,8.69
2022-12-22T17:46:26.164Z,8.63
2022-12-22T17:51:30.213Z,8.58
2022-12-22T17:56:34.656Z,8.50
2022-12-22T18:01:39.278Z,8.45
2022-12-22T18:06:42.509Z,8.38
2022-12-22T18:11:46.743Z,8.41
2022-12-22T18:16:49.578Z,8.35
2022-12-22T18:21:52.510Z,8.25
2022-12-22T18:26:56.599Z,8.28
2022-12-22T18:31:59.467Z,8.35
2022-12-22T18:37:03.323Z,8.44
2022-12-22T18:42:18.265Z,8.49
2022-12-22T18:47:21.089Z,8.44
2022-12-22T18:52:25.622Z,8.49
2022-12-22T18:57:30.065Z,8.53
2022-12-22T19:02:33.497Z,8.58
2022-12-22T19:07:36.410Z,8.64
2022-12-22T19:12:40.513Z,8.63
2022-12-22T19:17:43.225Z,8.63
2022-12-22T19:22:46.623Z,8.66
2022-12-22T19:27:52.881Z,8.67
2022-12-22T19:33:01.425Z,8.73
2022-12-22T19:38:17.665Z,8.84
2022-12-22T19:43:22.262Z,8.89
2022-12-22T19:48:27.057Z,8.88
2022-12-22T19:53:29.933Z,8.92
2022-12-22T19:58:37.632Z,8.95
2022-12-22T20:03:40.596Z,8.94
2022-12-22T20:08:43.512Z,8.98
2022-12-22T20:13:48.468Z,8.97
2022-12-22T20:18:51.235Z,8.97
2022-12-22T20:23:54.490Z,8.96
2022-12-22T20:28:58.717Z,8.94
2022-12-22T20:34:01.462Z,8.95
2022-12-22T20:39:11.975Z,8.90
2022-12-22T20:44:16.226Z,8.85
2022-12-22T20:49:18.931Z,8.79
2022-12-22T20:54:21.890Z,8.77
2022-12-22T20:59:26.080Z,8.79
2022-12-22T21:04:28.832Z,8.74
2022-12-22T21:09:31.705Z,8.68
2022-12-22T21:14:35.869Z,8.66
2022-12-22T21:19:38.833Z,8.63
2022-12-22T21:24:41.916Z,8.62
2022-12-22T21:29:46.834Z,8.68
2022-12-22T21:34:49.558Z,8.67
2022-12-22T21:39:52.459Z,8.67
2022-12-22T21:44:57.051Z,8.61
2022-12-22T21:49:59.850Z,8.61
2022-12-22T21:55:05.206Z,8.62
2022-12-22T22:00:11.747Z,8.63
2022-12-22T22:05:23.770Z,8.61
2022-12-22T22:10:28.188Z,8.73
2022-12-22T22:15:34.867Z,8.74
2022-12-22T22:20:37.760Z,8.72
2022-12-22T22:25:40.892Z,8.71
2022-12-22T22:30:45.072Z,8.77
2022-12-22T22:35:48.151Z,8.78
2022-12-22T22:40:50.850Z,8.77
2022-12-22T22:45:54.916Z,8.75
2022-12-22T22:50:57.686Z,8.73
2022-12-22T22:56:02.443Z,8.75
2022-12-22T23:01:07.945Z,8.78
2022-12-22T23:06:13.453Z,8.77
2022-12-22T23:11:16.700Z,8.80
2022-12-22T23:16:21.553Z,8.80
2022-12-22T23:21:25.308Z,8.84
2022-12-22T23:26:28.289Z,8.89
2022-12-22T23:31:32.687Z,8.91
2022-12-22T23:36:35.547Z,8.90
2022-12-22T23:41:38.525Z,8.94
2022-12-22T23:46:42.701Z,8.94
2022-12-22T23:51:45.563Z,8.99
2022-12-22T23:56:48.289Z,9.04
